Time;durP1;ratioP1;P1;durP2;ratioP2;P2;SDS_P1;SDS_P2;PMS_P1;PMS_P2;Temp;Humidity;BMP_temperature;BMP_pressure;BME280_temperature;BME280_humidity;BME280_pressure;Samples;Min_cycle;Max_cycle;Signal;HPM_P1;HPM_P2
2022/08/08 00:00:57;;;;;;;1.92;1.70;;;14.70;99.90;;;;;;21147697;28;20072;-57
2022/08/08 00:11:02;;;;;;;;;;;14.60;99.90;;;;;;21047541;28;20040;-55
2022/08/08 00:21:06;;;;;;;2.20;1.60;;;14.50;99.90;;;;;;21062893;28;19912;-55
2022/08/08 00:31:15;;;;;;;1.70;1.60;;;14.50;99.90;;;;;;21062805;28;20040;-55
2022/08/08 00:41:30;;;;;;;1.48;1.38;;;14.50;99.90;;;;;;21061543;28;20036;-55
2022/08/08 00:51:57;;;;;;;1.85;0.98;;;14.60;99.90;;;;;;21060838;28;20536;-55
2022/08/08 01:02:30;;;;;;;1.30;1.20;;;14.50;99.90;;;;;;21041322;28;20477;-61
2022/08/08 01:12:58;;;;;;;2.22;1.50;;;14.50;99.90;;;;;;21119581;28;20048;-57
2022/08/08 01:23:24;;;;;;;1.90;1.40;;;14.50;99.90;;;;;;21141364;28;20040;-61
2022/08/08 01:33:39;;;;;;;2.10;1.90;;;14.50;99.90;;;;;;21081512;28;20097;-58
2022/08/08 01:44:16;;;;;;;3.22;2.20;;;14.50;99.90;;;;;;21039845;28;20040;-57
2022/08/08 01:54:33;;;;;;;2.60;2.40;;;14.30;99.90;;;;;;21034707;28;20052;-61
2022/08/08 02:04:58;;;;;;;3.33;2.97;;;14.20;99.90;;;;;;21022158;28;20397;-57
2022/08/08 02:15:30;;;;;;;4.90;3.25;;;14.20;99.90;;;;;;21007230;28;20032;-57
2022/08/08 02:25:55;;;;;;;4.22;3.83;;;14.00;99.90;;;;;;21036592;28;20393;-55
2022/08/08 02:36:10;;;;;;;5.63;4.50;;;13.90;99.90;;;;;;21035669;28;20169;-56
2022/08/08 02:46:32;;;;;;;3.15;2.85;;;13.90;99.90;;;;;;21035244;28;20061;-61
2022/08/08 02:56:58;;;;;;;4.47;2.78;;;13.70;99.90;;;;;;21040636;28;20062;-61
2022/08/08 03:07:40;;;;;;;2.67;2.10;;;13.70;99.90;;;;;;20999337;28;20062;-60
2022/08/08 03:17:51;;;;;;;2.60;2.40;;;13.70;99.90;;;;;;21048919;28;20036;-57
2022/08/08 03:28:03;;;;;;;2.72;2.30;;;13.70;99.90;;;;;;21033426;28;20485;-57
2022/08/08 03:38:10;;;;;;;2.53;2.33;;;13.60;99.90;;;;;;21005577;28;20040;-58
2022/08/08 03:48:13;;;;;;;3.58;2.70;;;13.40;99.90;;;;;;21048798;28;20058;-60
2022/08/08 03:58:23;;;;;;;3.05;2.63;;;13.40;99.90;;;;;;21031584;28;20374;-57
2022/08/08 04:08:35;;;;;;;5.95;2.78;;;13.40;99.90;;;;;;21077175;28;20089;-57
2022/08/08 04:18:43;;;;;;;3.20;2.87;;;13.50;99.90;;;;;;21114050;28;20400;-56
2022/08/08 04:28:46;;;;;;;3.65;3.15;;;13.40;99.90;;;;;;21115337;28;20131;-57
2022/08/08 04:38:49;;;;;;;4.05;3.08;;;13.40;99.90;;;;;;21128372;28;20035;-57
2022/08/08 04:48:51;;;;;;;3.60;2.83;;;13.50;99.90;;;;;;21144245;28;20112;-57
2022/08/08 04:58:53;;;;;;;5.22;2.90;;;13.70;99.90;;;;;;21089514;28;20040;-61
2022/08/08 05:08:57;;;;;;;3.45;3.15;;;13.90;99.90;;;;;;21042979;28;20061;-58
2022/08/08 05:19:00;;;;;;;2.78;2.58;;;14.10;99.90;;;;;;21041955;28;20036;-57
2022/08/08 05:29:07;;;;;;;3.20;2.90;;;14.40;99.90;;;;;;21051784;28;20408;-58
2022/08/08 05:39:11;;;;;;;4.13;2.72;;;14.80;99.90;;;;;;20887814;28;20537;-56
2022/08/08 05:49:14;;;;;;;2.70;2.50;;;15.50;99.90;;;;;;20939937;28;20044;-61
2022/08/08 05:59:22;;;;;;;3.95;2.58;;;15.80;99.90;;;;;;20954522;28;20040;-58
2022/08/08 06:09:31;;;;;;;2.70;2.50;;;15.90;99.90;;;;;;20883129;28;20063;-58
2022/08/08 06:19:34;;;;;;;2.80;2.30;;;16.60;99.90;;;;;;20937603;28;20032;-58
2022/08/08 06:29:58;;;;;;;2.63;2.30;;;17.10;99.90;;;;;;20968800;28;20498;-58
2022/08/08 06:40:05;;;;;;;2.55;2.35;;;17.60;99.90;;;;;;21045230;28;20101;-63
2022/08/08 06:50:09;;;;;;;1.70;1.60;;;18.30;99.90;;;;;;21133783;28;20039;-59
2022/08/08 07:00:13;;;;;;;2.00;1.80;;;19.30;99.90;;;;;;21076341;28;20032;-64
2022/08/08 07:10:20;;;;;;;2.22;1.95;;;20.30;99.90;;;;;;21086233;28;20031;-57
2022/08/08 07:20:28;;;;;;;1.77;1.52;;;20.70;99.90;;;;;;21023625;28;20089;-57
2022/08/08 07:30:32;;;;;;;2.08;1.70;;;21.10;99.90;;;;;;20983322;28;20071;-62
2022/08/08 07:40:35;;;;;;;2.03;1.83;;;21.80;99.90;;;;;;20867365;28;20060;-57
2022/08/08 07:50:44;;;;;;;1.80;1.70;;;22.60;99.90;;;;;;20866129;28;20072;-58
2022/08/08 08:01:14;;;;;;;2.17;1.98;;;23.50;99.90;;;;;;20880423;28;20087;-58
2022/08/08 08:11:22;;;;;;;2.40;2.15;;;24.00;99.90;;;;;;20950069;28;20112;-57
2022/08/08 08:21:28;;;;;;;2.20;2.00;;;23.50;98.10;;;;;;20961922;28;20029;-57
2022/08/08 08:31:31;;;;;;;2.30;2.10;;;23.10;97.00;;;;;;20982038;28;20032;-58
2022/08/08 08:41:36;;;;;;;2.53;2.10;;;23.00;97.40;;;;;;21045168;28;20036;-57
2022/08/08 08:51:41;;;;;;;2.53;2.33;;;23.80;96.90;;;;;;21043923;28;20538;-57
2022/08/08 09:01:50;;;;;;;2.92;2.72;;;24.40;97.40;;;;;;21096340;28;20036;-57
2022/08/08 09:12:00;;;;;;;2.83;2.33;;;24.30;98.40;;;;;;21125308;28;20039;-57
2022/08/08 09:22:05;;;;;;;2.42;2.22;;;24.70;96.70;;;;;;21126987;28;20031;-58
2022/08/08 09:32:16;;;;;;;2.83;2.63;;;25.00;96.30;;;;;;21091525;28;20061;-57
2022/08/08 09:42:33;;;;;;;2.70;2.50;;;25.20;94.70;;;;;;21040388;28;20036;-57
2022/08/08 09:52:39;;;;;;;2.47;2.28;;;25.20;97.40;;;;;;21056071;28;20070;-58
2022/08/08 10:02:47;;;;;;;2.70;2.50;;;25.40;97.80;;;;;;21039271;28;20040;-58
2022/08/08 10:12:50;;;;;;;2.78;2.50;;;26.80;96.60;;;;;;21082694;28;20039;-57
2022/08/08 10:23:05;;;;;;;3.17;2.80;;;27.10;95.70;;;;;;21137315;28;20035;-58
2022/08/08 10:33:08;;;;;;;3.75;2.40;;;26.60;96.80;;;;;;21136337;28;20039;-57
2022/08/08 10:43:11;;;;;;;3.38;3.03;;;26.50;96.00;;;;;;21135640;28;20032;-58
2022/08/08 10:53:15;;;;;;;2.88;2.60;;;27.30;95.80;;;;;;21134698;28;20043;-58
2022/08/08 11:03:21;;;;;;;3.55;2.35;;;27.60;93.20;;;;;;21068171;28;20035;-57
2022/08/08 11:13:23;;;;;;;2.60;2.40;;;26.10;93.10;;;;;;21050221;28;20032;-58
2022/08/08 11:23:32;;;;;;;2.88;2.60;;;26.60;95.60;;;;;;21049852;28;20408;-59
2022/08/08 11:33:36;;;;;;;2.85;2.65;;;27.40;94.30;;;;;;21005353;28;20040;-57
2022/08/08 11:43:41;;;;;;;3.20;2.83;;;27.70;94.60;;;;;;21029638;28;20040;-57
2022/08/08 11:53:44;;;;;;;2.85;2.50;;;27.40;92.90;;;;;;21065119;28;20040;-59
2022/08/08 12:03:49;;;;;;;2.97;2.78;;;27.20;94.00;;;;;;21092419;28;20472;-57
2022/08/08 12:14:03;;;;;;;3.08;2.83;;;27.00;94.40;;;;;;21064110;28;20152;-58
2022/08/08 12:24:10;;;;;;;2.90;2.60;;;27.90;94.40;;;;;;21064073;28;20373;-57
2022/08/08 12:34:13;;;;;;;2.70;2.50;;;28.50;92.40;;;;;;21060169;28;20040;-57
2022/08/08 12:44:26;;;;;;;4.15;2.70;;;26.90;92.80;;;;;;21057599;28;20085;-57
2022/08/08 12:54:31;;;;;;;3.58;3.00;;;26.70;93.00;;;;;;21055640;28;20093;-57
2022/08/08 13:04:34;;;;;;;2.80;2.60;;;26.10;93.20;;;;;;21031661;28;20039;-57
2022/08/08 13:14:39;;;;;;;3.10;2.80;;;25.60;94.10;;;;;;21054288;28;20051;-57
2022/08/08 13:24:43;;;;;;;4.20;3.80;;;25.50;95.90;;;;;;21053723;28;20389;-57
2022/08/08 13:34:49;;;;;;;3.93;3.53;;;25.40;96.50;;;;;;21059040;28;1316375;-57
2022/08/08 13:44:57;;;;;;;4.50;3.70;;;25.40;95.70;;;;;;21140071;28;20032;-57
2022/08/08 13:55:01;;;;;;;5.18;4.30;;;25.60;96.00;;;;;;21139135;28;20472;-58
2022/08/08 14:05:08;;;;;;;5.22;4.80;;;25.80;95.90;;;;;;21102826;28;20089;-57
2022/08/08 14:15:32;;;;;;;7.60;4.80;;;25.60;96.00;;;;;;21054436;28;20538;-57
2022/08/08 14:26:18;;;;;;;4.35;3.97;;;25.90;96.20;;;;;;21053550;28;20032;-57
2022/08/08 14:36:35;;;;;;;5.73;4.77;;;27.30;96.10;;;;;;20713997;28;20104;-57
2022/08/08 14:46:37;;;;;;;8.93;4.10;;;27.60;93.30;;;;;;20713669;28;20049;-57
2022/08/08 14:56:40;;;;;;;6.60;5.93;;;28.00;92.40;;;;;;20701542;28;20077;-57
2022/08/08 15:06:42;;;;;;;4.20;3.80;;;28.00;93.00;;;;;;20781528;28;20045;-57
2022/08/08 15:16:45;;;;;;;4.25;3.95;;;27.50;93.90;;;;;;20959762;28;20036;-58
2022/08/08 15:26:48;;;;;;;4.68;3.95;;;26.30;93.60;;;;;;20975569;28;20040;-58
2022/08/08 15:36:51;;;;;;;5.10;4.60;;;25.80;96.10;;;;;;21019327;28;20040;-58
2022/08/08 15:46:55;;;;;;;6.47;5.93;;;26.80;94.00;;;;;;21048652;28;20477;-57
2022/08/08 15:56:57;;;;;;;5.07;4.63;;;27.50;92.80;;;;;;21048570;28;20044;-57
2022/08/08 16:06:59;;;;;;;6.05;5.20;;;26.80;92.90;;;;;;20979484;28;20374;-57
2022/08/08 16:17:03;;;;;;;5.25;4.30;;;25.70;93.20;;;;;;21020051;28;20393;-57
2022/08/08 16:27:06;;;;;;;7.43;5.18;;;23.60;99.90;;;;;;21069428;28;20035;-57
2022/08/08 16:37:08;;;;;;;6.15;5.65;;;22.20;99.90;;;;;;21145374;28;20056;-57
2022/08/08 16:47:30;;;;;;;5.25;4.85;;;21.40;99.90;;;;;;21145037;28;20044;-57
2022/08/08 16:57:32;;;;;;;5.93;5.30;;;20.90;99.90;;;;;;21125499;28;20040;-57
2022/08/08 17:07:35;;;;;;;10.35;6.72;;;20.60;99.90;;;;;;21060002;28;20062;-58
2022/08/08 17:17:37;;;;;;;10.25;6.25;;;20.30;99.90;;;;;;21058961;28;20061;-58
2022/08/08 17:27:40;;;;;;;6.05;5.45;;;20.00;99.90;;;;;;21058313;28;20028;-57
2022/08/08 17:37:43;;;;;;;7.60;6.80;;;19.70;99.90;;;;;;21031877;28;20077;-57
2022/08/08 17:47:45;;;;;;;7.00;6.25;;;19.40;99.90;;;;;;21056611;28;20485;-57
2022/08/08 17:57:48;;;;;;;7.28;6.65;;;19.50;99.90;;;;;;21055387;28;20062;-57
2022/08/08 18:07:50;;;;;;;9.95;6.57;;;19.70;99.90;;;;;;21048380;28;20036;-57
2022/08/08 18:17:52;;;;;;;8.98;7.55;;;19.50;99.90;;;;;;21054240;28;20485;-57
2022/08/08 18:27:55;;;;;;;9.63;6.95;;;19.00;99.90;;;;;;21053518;28;20188;-57
2022/08/08 18:37:58;;;;;;;11.90;8.93;;;18.70;99.90;;;;;;21052845;28;20097;-59
2022/08/08 18:48:00;;;;;;;10.77;9.15;;;18.40;99.90;;;;;;21052034;28;20062;-59
2022/08/08 18:58:03;;;;;;;11.65;10.00;;;18.10;99.90;;;;;;21050762;28;20040;-59
2022/08/08 19:08:15;;;;;;;9.43;8.35;;;17.80;99.90;;;;;;21050689;28;20091;-59
2022/08/08 19:18:18;;;;;;;10.05;9.05;;;17.60;99.90;;;;;;21050318;28;20495;-59
2022/08/08 19:28:22;;;;;;;9.63;8.63;;;17.30;99.90;;;;;;21049163;28;20036;-62
2022/08/08 19:38:24;;;;;;;9.63;8.63;;;17.00;99.90;;;;;;21013741;28;20403;-60
2022/08/08 19:48:27;;;;;;;9.63;8.63;;;16.70;99.90;;;;;;21049003;28;20032;-58
2022/08/08 19:58:30;;;;;;;9.40;7.00;;;16.50;99.90;;;;;;21048925;28;20032;-59
2022/08/08 20:08:33;;;;;;;7.38;6.68;;;16.70;99.90;;;;;;21090745;28;20039;-59
2022/08/08 20:18:36;;;;;;;6.80;6.10;;;16.80;99.90;;;;;;21147373;28;20472;-59
2022/08/08 20:28:40;;;;;;;6.10;5.50;;;16.80;99.90;;;;;;21146011;28;20035;-59
2022/08/08 20:38:43;;;;;;;6.80;6.10;;;16.80;99.90;;;;;;21145411;28;20047;-59
2022/08/08 20:48:46;;;;;;;6.22;5.63;;;16.60;99.90;;;;;;21141822;28;20031;-61
2022/08/08 20:58:49;;;;;;;6.63;6.03;;;16.50;99.90;;;;;;20991022;28;20040;-59
2022/08/08 21:08:52;;;;;;;7.88;5.55;;;16.30;99.90;;;;;;21019879;28;20401;-59
2022/08/08 21:18:56;;;;;;;6.30;5.70;;;16.30;99.90;;;;;;21059067;28;20558;-59
2022/08/08 21:28:59;;;;;;;7.18;5.63;;;16.40;99.90;;;;;;21052491;28;20055;-58
2022/08/08 21:39:01;;;;;;;6.32;5.68;;;16.50;99.90;;;;;;20906970;28;20053;-59
2022/08/08 21:49:04;;;;;;;7.55;5.35;;;16.50;99.90;;;;;;20873695;28;20044;-61
2022/08/08 21:59:07;;;;;;;7.28;5.50;;;16.50;99.90;;;;;;20907902;28;20025;-57
2022/08/08 22:09:10;;;;;;;5.90;5.30;;;16.50;99.90;;;;;;20919515;28;20037;-57
2022/08/08 22:19:12;;;;;;;8.00;5.82;;;16.30;99.90;;;;;;20888463;28;20087;-57
2022/08/08 22:29:15;;;;;;;7.05;5.18;;;16.00;99.90;;;;;;20887028;28;20045;-55
2022/08/08 22:39:20;;;;;;;6.85;6.00;;;15.70;99.90;;;;;;20993343;28;20044;-60
2022/08/08 22:49:23;;;;;;;6.00;5.40;;;15.70;99.90;;;;;;21053520;28;20547;-60
2022/08/08 22:59:25;;;;;;;6.53;5.57;;;15.40;99.90;;;;;;21017490;28;20040;-58
2022/08/08 23:09:29;;;;;;;6.20;5.55;;;15.30;99.90;;;;;;21038298;28;20591;-57
2022/08/08 23:19:33;;;;;;;7.65;6.28;;;15.20;99.90;;;;;;21065521;28;20105;-56
2022/08/08 23:29:37;;;;;;;6.15;5.55;;;15.00;99.90;;;;;;21040024;28;20413;-58
2022/08/08 23:39:39;;;;;;;6.78;6.18;;;14.90;99.90;;;;;;20906210;28;20053;-57
2022/08/08 23:49:44;;;;;;;7.53;6.70;;;14.80;99.90;;;;;;20899985;28;20547;-57
2022/08/08 23:59:46;;;;;;;8.70;7.75;;;14.90;99.90;;;;;;20899302;28;20056;-57
